Time;durP1;ratioP1;P1;durP2;ratioP2;P2;SDS_P1;SDS_P2;PMS_P1;PMS_P2;Temp;Humidity;BMP_temperature;BMP_pressure;BME280_temperature;BME280_humidity;BME280_pressure;Samples;Min_cycle;Max_cycle;Signal;HPM_P1;HPM_P2
2021/03/09 00:01:27;;;;;;;11.43;9.90;;;2.70;99.90;;;;;;5053363;28;20178;-64
2021/03/09 00:03:53;;;;;;;13.50;10.40;;;2.70;99.90;;;;;;5053044;28;20193;-64
2021/03/09 00:06:18;;;;;;;11.43;9.33;;;2.60;99.90;;;;;;5033035;28;20187;-64
2021/03/09 00:08:44;;;;;;;12.63;9.63;;;2.60;99.90;;;;;;5045772;28;20194;-64
2021/03/09 00:11:10;;;;;;;14.10;11.60;;;2.60;99.90;;;;;;5051466;28;20530;-63
2021/03/09 00:13:36;;;;;;;11.83;10.20;;;2.60;99.90;;;;;;5033178;28;20189;-64
2021/03/09 00:16:01;;;;;;;13.27;10.17;;;2.60;99.90;;;;;;5031887;28;20183;-64
2021/03/09 00:18:27;;;;;;;13.90;10.60;;;2.60;99.90;;;;;;5020551;28;20784;-63
2021/03/09 00:20:52;;;;;;;12.00;9.57;;;2.60;99.90;;;;;;5030283;28;20181;-64
2021/03/09 00:23:18;;;;;;;11.10;9.90;;;2.50;99.90;;;;;;5019505;28;20581;-64
2021/03/09 00:25:44;;;;;;;11.77;9.03;;;2.50;99.90;;;;;;5049340;28;20170;-60
2021/03/09 00:28:09;;;;;;;14.40;10.37;;;2.50;99.90;;;;;;5024592;28;20170;-65
2021/03/09 00:30:35;;;;;;;12.73;10.30;;;2.50;99.90;;;;;;5033226;28;20170;-63
2021/03/09 00:33:00;;;;;;;11.40;9.87;;;2.50;99.90;;;;;;5043850;28;20165;-64
2021/03/09 00:35:26;;;;;;;11.90;10.03;;;2.50;99.90;;;;;;5053581;28;20217;-61
2021/03/09 00:37:51;;;;;;;13.13;10.50;;;2.40;99.90;;;;;;5039476;28;20672;-63
2021/03/09 00:40:17;;;;;;;13.63;10.70;;;2.40;99.90;;;;;;5052964;28;20181;-63
2021/03/09 00:42:43;;;;;;;12.43;10.23;;;2.40;99.90;;;;;;5052967;28;20515;-63
2021/03/09 00:45:09;;;;;;;12.13;10.33;;;2.50;99.90;;;;;;5052808;28;20217;-63
2021/03/09 00:47:34;;;;;;;11.40;9.87;;;2.50;99.90;;;;;;5053244;28;20170;-63
2021/03/09 00:50:00;;;;;;;13.00;11.40;;;2.50;99.90;;;;;;5049260;28;20482;-63
2021/03/09 00:52:26;;;;;;;13.17;10.50;;;2.40;99.90;;;;;;5028157;28;20265;-65
2021/03/09 00:54:52;;;;;;;13.17;11.30;;;2.40;99.90;;;;;;5009916;28;20197;-62
2021/03/09 00:57:17;;;;;;;11.87;9.60;;;2.50;99.90;;;;;;5033316;28;20393;-65
2021/03/09 00:59:43;;;;;;;12.73;10.90;;;2.50;99.90;;;;;;5034090;28;20254;-63
2021/03/09 01:02:08;;;;;;;13.10;11.10;;;2.40;99.90;;;;;;5033189;28;20249;-64
2021/03/09 01:04:34;;;;;;;12.23;10.50;;;2.40;99.90;;;;;;5034034;28;20225;-63
2021/03/09 01:07:00;;;;;;;14.43;10.07;;;2.40;99.90;;;;;;5012615;28;20235;-63
2021/03/09 01:09:25;;;;;;;12.93;10.83;;;2.40;99.90;;;;;;5041775;28;20587;-64
2021/03/09 01:11:51;;;;;;;15.10;11.17;;;2.50;99.90;;;;;;5031666;28;20659;-64
2021/03/09 01:14:17;;;;;;;10.90;9.80;;;2.40;99.90;;;;;;5056303;28;20193;-64
2021/03/09 01:16:42;;;;;;;12.57;10.53;;;2.30;99.90;;;;;;5056479;28;20177;-63
2021/03/09 01:19:08;;;;;;;14.97;11.80;;;2.40;99.90;;;;;;5056341;28;20432;-63
2021/03/09 01:21:36;;;;;;;14.80;10.90;;;2.40;99.90;;;;;;5056312;28;20648;-63
2021/03/09 01:24:02;;;;;;;14.90;11.43;;;2.40;99.90;;;;;;5018115;28;20206;-64
2021/03/09 01:26:29;;;;;;;15.87;11.60;;;2.40;99.90;;;;;;5056060;28;20935;-63
2021/03/09 01:28:54;;;;;;;13.60;10.27;;;2.30;99.90;;;;;;5056383;28;20250;-63
2021/03/09 01:31:20;;;;;;;12.20;10.77;;;2.40;99.90;;;;;;5056150;28;20435;-63
2021/03/09 01:33:46;;;;;;;13.70;11.20;;;2.40;99.90;;;;;;5056122;28;20535;-63
2021/03/09 01:36:11;;;;;;;16.07;11.93;;;2.30;99.90;;;;;;5051082;28;20174;-64
2021/03/09 01:38:37;;;;;;;14.07;11.43;;;2.30;99.90;;;;;;5047775;28;20329;-63
2021/03/09 01:41:03;;;;;;;13.17;11.77;;;2.30;99.90;;;;;;5056456;28;20173;-63
2021/03/09 01:45:56;;;;;;;12.63;10.60;;;2.20;99.90;;;;;;5011094;28;20466;-64
2021/03/09 01:48:30;;;;;;;16.00;12.00;;;2.20;99.90;;;;;;5021388;28;20423;-64
2021/03/09 01:50:55;;;;;;;14.67;11.30;;;2.20;99.90;;;;;;5016127;28;20154;-64
2021/03/09 01:53:21;;;;;;;14.60;11.17;;;2.20;99.90;;;;;;5029620;28;20427;-64
2021/03/09 01:55:47;;;;;;;15.40;11.37;;;2.20;99.90;;;;;;5035832;28;20172;-62
2021/03/09 01:58:16;;;;;;;14.50;11.40;;;2.20;99.90;;;;;;5035880;28;20197;-63
2021/03/09 02:00:42;;;;;;;17.27;12.80;;;2.20;99.90;;;;;;5035351;28;20162;-62
2021/03/09 02:03:08;;;;;;;15.50;13.30;;;2.20;99.90;;;;;;5035896;28;20431;-63
2021/03/09 02:05:34;;;;;;;14.07;12.47;;;2.20;99.90;;;;;;5021602;28;20191;-63
2021/03/09 02:08:00;;;;;;;14.57;12.10;;;2.10;99.90;;;;;;5015318;28;20185;-62
2021/03/09 02:10:27;;;;;;;15.03;12.63;;;2.20;99.90;;;;;;5015554;28;20821;-63
2021/03/09 02:13:12;;;;;;;13.70;12.30;;;2.10;99.90;;;;;;5015958;28;20166;-63
2021/03/09 02:16:01;;;;;;;14.37;11.70;;;2.20;99.90;;;;;;5015320;28;20533;-62
2021/03/09 02:18:39;;;;;;;13.40;11.47;;;2.20;99.90;;;;;;5015974;28;20386;-62
2021/03/09 02:21:23;;;;;;;15.07;11.57;;;2.10;99.90;;;;;;5015816;28;20491;-62
2021/03/09 02:23:51;;;;;;;14.30;12.10;;;2.10;99.90;;;;;;5015591;28;20423;-62
2021/03/09 02:26:19;;;;;;;17.70;12.40;;;2.00;99.90;;;;;;5009195;28;20421;-62
2021/03/09 02:29:05;;;;;;;15.13;12.03;;;2.00;99.90;;;;;;5015708;28;20829;-62
2021/03/09 02:31:31;;;;;;;16.50;11.70;;;2.00;99.90;;;;;;5015254;28;20809;-63
2021/03/09 02:34:08;;;;;;;14.97;12.90;;;2.10;99.90;;;;;;5015134;28;20956;-62
2021/03/09 02:36:35;;;;;;;16.67;13.03;;;2.10;99.90;;;;;;5015002;28;20410;-62
2021/03/09 02:39:06;;;;;;;16.50;12.30;;;2.00;99.90;;;;;;5014951;28;20423;-62
2021/03/09 02:41:35;;;;;;;13.17;11.83;;;1.90;99.90;;;;;;5015232;28;20412;-62
2021/03/09 02:44:03;;;;;;;17.60;12.43;;;2.00;99.90;;;;;;5015916;28;20450;-62
2021/03/09 02:46:31;;;;;;;15.07;12.70;;;2.00;99.90;;;;;;5035385;28;20815;-63
2021/03/09 02:48:57;;;;;;;16.20;13.50;;;2.00;99.90;;;;;;5034962;28;20968;-62
2021/03/09 02:51:25;;;;;;;15.47;12.10;;;2.00;99.90;;;;;;5034694;28;20893;-62
2021/03/09 02:53:53;;;;;;;15.73;13.27;;;2.00;99.90;;;;;;5034690;28;20843;-63
2021/03/09 02:56:21;;;;;;;14.73;12.23;;;2.00;99.90;;;;;;5034626;28;20460;-62
2021/03/09 02:58:53;;;;;;;15.23;12.97;;;2.00;99.90;;;;;;5034527;28;20463;-63
2021/03/09 03:01:20;;;;;;;15.10;11.97;;;2.00;99.90;;;;;;5034929;28;20405;-62
2021/03/09 03:03:48;;;;;;;16.17;13.07;;;1.90;99.90;;;;;;5016969;28;20451;-63
2021/03/09 03:06:15;;;;;;;16.83;12.67;;;1.90;99.90;;;;;;5023548;28;20470;-63
2021/03/09 03:08:42;;;;;;;16.80;13.00;;;1.90;99.90;;;;;;5017765;28;20537;-61
2021/03/09 03:11:09;;;;;;;16.97;13.40;;;1.90;99.90;;;;;;5014143;28;20432;-62
2021/03/09 03:13:35;;;;;;;16.00;13.30;;;2.00;99.90;;;;;;5014403;28;20403;-62
2021/03/09 03:16:03;;;;;;;17.13;14.03;;;2.00;99.90;;;;;;5014272;28;20445;-62
2021/03/09 03:18:34;;;;;;;15.83;12.93;;;2.00;99.90;;;;;;5014432;28;20474;-62
2021/03/09 03:21:01;;;;;;;15.17;11.73;;;1.90;99.90;;;;;;5014519;28;20920;-62
2021/03/09 03:23:27;;;;;;;13.70;11.63;;;1.90;99.90;;;;;;5014274;28;20402;-62
2021/03/09 03:25:56;;;;;;;15.27;12.10;;;1.90;99.90;;;;;;5030828;28;20917;-62
2021/03/09 03:28:22;;;;;;;17.93;13.97;;;1.90;99.90;;;;;;5033404;28;20428;-62
2021/03/09 03:30:50;;;;;;;14.90;12.73;;;2.00;99.90;;;;;;5033737;28;20457;-62
2021/03/09 03:33:17;;;;;;;15.23;11.90;;;2.00;99.90;;;;;;5034017;28;20399;-62
2021/03/09 03:35:44;;;;;;;15.50;13.23;;;2.00;99.90;;;;;;5022791;28;20453;-63
2021/03/09 03:38:14;;;;;;;15.77;12.60;;;1.90;99.90;;;;;;5014156;28;20405;-62
2021/03/09 03:40:40;;;;;;;16.10;12.07;;;1.80;99.90;;;;;;5014464;28;20415;-62
2021/03/09 03:43:06;;;;;;;17.00;13.47;;;1.80;99.90;;;;;;5014097;28;20411;-62
2021/03/09 03:45:32;;;;;;;15.93;12.87;;;1.80;99.90;;;;;;5008536;28;20553;-62
2021/03/09 03:47:59;;;;;;;18.80;14.07;;;1.80;99.90;;;;;;5008658;28;20182;-63
2021/03/09 03:50:26;;;;;;;14.90;12.60;;;1.80;99.90;;;;;;5033343;28;20482;-62
2021/03/09 03:53:14;;;;;;;16.07;12.17;;;1.80;99.90;;;;;;5033455;28;20497;-62
2021/03/09 03:55:58;;;;;;;17.27;13.40;;;1.80;99.90;;;;;;5033800;28;20454;-63
2021/03/09 03:58:43;;;;;;;17.40;13.83;;;1.80;99.90;;;;;;5033267;28;20902;-63
2021/03/09 04:01:12;;;;;;;17.10;13.17;;;1.70;99.90;;;;;;5033140;28;20418;-62
2021/03/09 04:03:38;;;;;;;15.40;13.23;;;1.70;99.90;;;;;;5023148;28;20412;-62
2021/03/09 04:06:06;;;;;;;17.63;13.27;;;1.80;99.90;;;;;;5013125;28;20426;-63
2021/03/09 04:08:33;;;;;;;14.80;13.20;;;1.70;99.90;;;;;;5013673;28;20479;-62
2021/03/09 04:11:01;;;;;;;16.03;12.47;;;1.80;99.90;;;;;;5013832;28;20841;-62
2021/03/09 04:13:27;;;;;;;15.90;13.37;;;1.80;99.90;;;;;;5013469;28;20411;-62
2021/03/09 04:15:55;;;;;;;17.07;12.97;;;1.80;99.90;;;;;;4993650;28;20408;-62
2021/03/09 04:18:23;;;;;;;16.13;13.50;;;1.70;99.90;;;;;;4993943;28;20412;-62
2021/03/09 04:20:49;;;;;;;13.80;12.10;;;1.70;99.90;;;;;;4993950;28;20930;-62
2021/03/09 04:23:17;;;;;;;15.93;14.13;;;1.70;99.90;;;;;;4993888;28;20411;-62
2021/03/09 04:25:43;;;;;;;15.10;12.63;;;1.70;99.90;;;;;;4992698;28;20934;-63
2021/03/09 04:28:10;;;;;;;15.20;12.53;;;1.70;99.90;;;;;;5010101;28;20491;-63
2021/03/09 04:30:36;;;;;;;16.20;13.93;;;1.70;99.90;;;;;;5012991;28;20453;-62
2021/03/09 04:33:02;;;;;;;18.83;13.23;;;1.80;99.90;;;;;;5024767;28;20486;-62
2021/03/09 04:35:28;;;;;;;14.60;13.10;;;1.80;99.90;;;;;;5033241;28;20428;-63
2021/03/09 04:37:55;;;;;;;18.07;14.87;;;1.80;99.90;;;;;;5013783;28;20471;-63
2021/03/09 04:40:22;;;;;;;19.30;12.80;;;1.80;99.90;;;;;;5012306;28;20870;-63
2021/03/09 04:42:47;;;;;;;16.27;13.00;;;1.70;99.90;;;;;;5013108;28;20462;-63
2021/03/09 04:45:14;;;;;;;18.43;15.10;;;1.70;99.90;;;;;;5023868;28;20476;-63
2021/03/09 04:47:40;;;;;;;17.13;13.10;;;1.70;99.90;;;;;;5032817;28;20170;-63
2021/03/09 04:50:09;;;;;;;15.57;13.93;;;1.70;99.90;;;;;;5032640;28;20480;-63
2021/03/09 04:52:35;;;;;;;17.60;15.00;;;1.70;99.90;;;;;;5033074;28;20404;-63
2021/03/09 04:55:04;;;;;;;17.03;14.60;;;1.70;99.90;;;;;;5032749;28;20419;-63
2021/03/09 04:57:38;;;;;;;18.70;15.30;;;1.70;99.90;;;;;;5015414;28;20413;-63
2021/03/09 05:00:09;;;;;;;15.10;13.30;;;1.60;99.90;;;;;;5012916;28;21003;-63
2021/03/09 05:02:35;;;;;;;16.60;13.70;;;1.60;99.90;;;;;;5013455;28;20411;-63
2021/03/09 05:05:01;;;;;;;17.70;14.20;;;1.70;99.90;;;;;;5013099;28;20875;-63
2021/03/09 05:07:26;;;;;;;14.93;13.37;;;1.60;99.90;;;;;;5010219;28;20172;-63
2021/03/09 05:09:52;;;;;;;18.53;13.37;;;1.60;99.90;;;;;;5013448;28;20206;-63
2021/03/09 05:12:18;;;;;;;18.90;14.53;;;1.60;99.90;;;;;;5017763;28;20184;-63
2021/03/09 05:14:43;;;;;;;18.00;14.20;;;1.60;99.90;;;;;;5021927;28;20236;-61
2021/03/09 05:17:09;;;;;;;21.77;14.83;;;1.60;99.90;;;;;;5012951;28;20218;-63
2021/03/09 05:19:34;;;;;;;17.67;13.23;;;1.60;99.90;;;;;;5013004;28;20252;-63
2021/03/09 05:22:00;;;;;;;18.47;14.10;;;1.50;99.90;;;;;;5012800;28;20645;-63
2021/03/09 05:24:26;;;;;;;16.90;13.73;;;1.50;99.90;;;;;;5017279;28;20192;-63
2021/03/09 05:26:52;;;;;;;16.67;14.50;;;1.50;99.90;;;;;;5032519;28;20165;-63
2021/03/09 05:29:18;;;;;;;17.33;14.03;;;1.60;99.90;;;;;;5032154;28;20448;-64
2021/03/09 05:31:43;;;;;;;17.80;15.90;;;1.50;99.90;;;;;;5012642;28;20953;-63
2021/03/09 05:34:09;;;;;;;17.07;14.83;;;1.50;99.90;;;;;;5006435;28;20189;-63
2021/03/09 05:36:35;;;;;;;21.70;14.17;;;1.50;99.90;;;;;;5012366;28;20178;-64
2021/03/09 05:39:00;;;;;;;17.53;14.70;;;1.60;99.90;;;;;;5012696;28;20175;-64
2021/03/09 05:41:26;;;;;;;18.50;14.70;;;1.50;99.90;;;;;;5012923;28;20601;-64
2021/03/09 05:43:52;;;;;;;20.60;14.53;;;1.60;99.90;;;;;;5012482;28;20701;-64
2021/03/09 05:46:18;;;;;;;19.70;14.67;;;1.70;99.90;;;;;;5006421;28;20183;-64
2021/03/09 05:48:43;;;;;;;19.33;15.30;;;1.70;99.90;;;;;;5012348;28;20444;-64
2021/03/09 05:51:09;;;;;;;23.87;18.00;;;1.60;99.90;;;;;;5021995;28;20599;-64
2021/03/09 05:53:35;;;;;;;20.47;16.13;;;1.60;99.90;;;;;;5035665;28;20545;-64
2021/03/09 05:56:04;;;;;;;23.77;19.00;;;1.60;99.90;;;;;;5035712;28;20416;-63
2021/03/09 05:58:30;;;;;;;19.57;16.37;;;1.60;99.90;;;;;;5035929;28;20259;-64
2021/03/09 06:00:56;;;;;;;19.60;15.87;;;1.60;99.90;;;;;;5035450;28;20406;-64
2021/03/09 06:03:25;;;;;;;20.30;16.50;;;1.60;99.90;;;;;;5035392;28;20407;-63
2021/03/09 06:05:50;;;;;;;20.80;16.10;;;1.60;99.90;;;;;;5033139;28;20205;-64
2021/03/09 06:08:16;;;;;;;23.40;16.50;;;1.60;99.90;;;;;;5015893;28;20432;-63
2021/03/09 06:10:42;;;;;;;19.53;16.70;;;1.70;99.90;;;;;;5015555;28;20625;-64
2021/03/09 06:13:08;;;;;;;18.30;15.53;;;1.70;99.90;;;;;;5015611;28;20262;-64
2021/03/09 06:15:52;;;;;;;20.07;15.90;;;1.70;99.90;;;;;;5015018;28;20526;-63
2021/03/09 06:18:23;;;;;;;20.43;15.50;;;1.80;99.90;;;;;;5015789;28;20561;-64
2021/03/09 06:20:49;;;;;;;19.37;15.17;;;1.90;99.90;;;;;;5015335;28;20398;-64
2021/03/09 06:23:26;;;;;;;21.60;17.13;;;1.90;99.90;;;;;;5015474;28;20420;-64
2021/03/09 06:25:52;;;;;;;22.37;18.13;;;1.90;99.90;;;;;;5010045;28;20193;-63
2021/03/09 06:28:31;;;;;;;24.50;18.43;;;2.00;99.90;;;;;;5014690;28;20417;-62
2021/03/09 06:31:01;;;;;;;19.70;15.33;;;2.10;99.90;;;;;;5015308;28;20163;-64
2021/03/09 06:33:31;;;;;;;19.40;15.43;;;2.20;99.90;;;;;;5030148;28;20435;-64
2021/03/09 06:36:00;;;;;;;21.33;17.13;;;2.10;99.90;;;;;;5032180;28;20474;-64
2021/03/09 06:38:30;;;;;;;24.03;17.37;;;2.20;99.90;;;;;;5015298;28;20412;-62
2021/03/09 06:41:16;;;;;;;20.57;16.20;;;2.30;99.90;;;;;;5015135;28;20398;-64
2021/03/09 06:43:44;;;;;;;22.87;17.30;;;2.40;99.90;;;;;;5014976;28;20858;-64
2021/03/09 06:46:21;;;;;;;19.77;16.23;;;2.30;99.90;;;;;;5027037;28;20426;-64
2021/03/09 06:48:50;;;;;;;21.67;17.27;;;2.40;99.90;;;;;;5015042;28;20492;-64
2021/03/09 06:51:35;;;;;;;22.23;16.53;;;2.50;99.90;;;;;;5014824;28;20891;-63
2021/03/09 06:54:09;;;;;;;21.37;16.43;;;2.60;99.90;;;;;;5014816;28;20430;-63
2021/03/09 06:56:37;;;;;;;21.43;16.70;;;2.70;99.90;;;;;;5014690;28;20429;-64
2021/03/09 06:59:30;;;;;;;19.73;15.40;;;2.80;99.90;;;;;;5014991;28;20427;-64
2021/03/09 07:02:05;;;;;;;20.83;16.10;;;2.90;99.90;;;;;;5014271;28;20402;-64
2021/03/09 07:04:31;;;;;;;20.07;17.67;;;2.90;99.90;;;;;;5015140;28;20479;-64
2021/03/09 07:06:57;;;;;;;22.43;19.30;;;2.90;99.90;;;;;;5012170;28;20424;-64
2021/03/09 07:09:22;;;;;;;26.70;17.57;;;2.90;99.90;;;;;;5015040;28;20989;-64
2021/03/09 07:11:52;;;;;;;21.17;16.73;;;3.00;99.90;;;;;;5013887;28;20565;-64
2021/03/09 07:14:19;;;;;;;18.60;16.53;;;3.10;99.90;;;;;;5014095;28;20199;-64
2021/03/09 07:16:49;;;;;;;22.77;18.27;;;3.20;99.90;;;;;;5014191;28;20403;-64
2021/03/09 07:19:54;;;;;;;22.43;18.20;;;3.30;99.90;;;;;;4997483;28;20385;-64
2021/03/09 07:22:21;;;;;;;19.00;15.80;;;3.40;99.90;;;;;;4972954;28;20959;-64
2021/03/09 07:25:11;;;;;;;19.83;16.17;;;3.60;99.90;;;;;;4973015;28;20427;-62
2021/03/09 07:27:40;;;;;;;19.47;17.10;;;3.70;99.90;;;;;;4999514;28;20421;-63
2021/03/09 07:30:08;;;;;;;20.23;16.83;;;3.80;99.90;;;;;;5013512;28;20577;-62
2021/03/09 07:32:38;;;;;;;18.80;14.83;;;3.80;99.90;;;;;;5014201;28;20403;-63
2021/03/09 07:35:05;;;;;;;19.40;15.20;;;4.10;99.90;;;;;;5013773;28;20430;-63
2021/03/09 07:37:34;;;;;;;17.73;15.63;;;4.20;99.90;;;;;;4996098;28;20944;-63
2021/03/09 07:40:01;;;;;;;18.67;16.60;;;4.40;99.90;;;;;;5014303;28;20590;-63
2021/03/09 07:42:27;;;;;;;16.90;15.10;;;4.60;99.90;;;;;;5014511;28;20407;-63
2021/03/09 07:44:53;;;;;;;19.37;16.67;;;4.70;99.90;;;;;;5044467;23;20569;-62
2021/03/09 07:47:20;;;;;;;19.60;14.93;;;4.80;99.90;;;;;;5019624;28;20261;-63
2021/03/09 07:49:46;;;;;;;18.77;15.70;;;4.90;99.90;;;;;;5029143;28;20469;-64
2021/03/09 07:52:16;;;;;;;25.67;16.50;;;5.00;99.90;;;;;;5015641;28;20411;-64
2021/03/09 07:55:04;;;;;;;18.50;16.00;;;5.10;99.90;;;;;;5019477;28;20422;-63
2021/03/09 07:57:33;;;;;;;26.37;16.60;;;5.20;99.90;;;;;;5015579;28;20504;-62
2021/03/09 08:00:00;;;;;;;21.27;15.50;;;5.30;99.90;;;;;;5033414;28;20501;-62
2021/03/09 08:03:00;;;;;;;19.47;16.40;;;5.10;99.90;;;;;;5033112;28;20394;-64
2021/03/09 08:05:28;;;;;;;23.87;16.77;;;5.20;99.90;;;;;;5020895;28;20931;-63
2021/03/09 08:08:04;;;;;;;21.80;18.57;;;5.10;99.90;;;;;;5032017;28;20941;-65
2021/03/09 08:10:30;;;;;;;20.70;16.70;;;5.10;99.90;;;;;;5033606;28;20437;-64
2021/03/09 08:13:07;;;;;;;19.67;15.70;;;5.10;99.90;;;;;;5033097;28;20493;-64
2021/03/09 08:15:38;;;;;;;22.37;16.37;;;5.10;99.90;;;;;;5045117;28;20237;-62
2021/03/09 08:18:22;;;;;;;22.83;17.17;;;4.90;99.90;;;;;;5053060;28;20405;-63
2021/03/09 08:20:52;;;;;;;23.87;17.70;;;4.90;99.90;;;;;;5053699;28;20397;-61
2021/03/09 08:23:35;;;;;;;21.00;17.50;;;5.10;99.90;;;;;;5053302;28;20409;-62
2021/03/09 08:26:09;;;;;;;32.03;17.80;;;5.20;99.90;;;;;;5026559;28;22115;-65
2021/03/09 08:28:38;;;;;;;21.17;15.53;;;5.40;99.90;;;;;;5031545;28;20406;-63
2021/03/09 08:31:09;;;;;;;23.03;19.63;;;5.50;99.90;;;;;;5033023;28;20410;-62
2021/03/09 08:33:45;;;;;;;23.80;18.57;;;5.70;99.90;;;;;;5033185;28;20890;-64
2021/03/09 08:36:20;;;;;;;22.10;18.50;;;5.50;99.90;;;;;;5032360;28;20513;-64
2021/03/09 08:39:04;;;;;;;27.73;17.50;;;5.40;99.90;;;;;;5033028;28;20551;-64
2021/03/09 08:41:36;;;;;;;20.47;17.93;;;5.50;99.90;;;;;;5032999;28;20410;-64
2021/03/09 08:44:23;;;;;;;22.10;18.37;;;5.50;99.90;;;;;;5031059;28;20514;-63
2021/03/09 08:46:52;;;;;;;23.27;19.87;;;5.70;99.90;;;;;;5016113;28;20961;-64
2021/03/09 08:49:36;;;;;;;30.33;20.70;;;6.00;99.90;;;;;;5032785;28;21040;-63
2021/03/09 08:52:03;;;;;;;24.77;20.37;;;5.90;99.90;;;;;;5033213;28;20398;-62
2021/03/09 08:54:31;;;;;;;25.90;20.77;;;5.90;99.90;;;;;;5031054;28;20802;-64
2021/03/09 08:57:00;;;;;;;22.73;17.93;;;5.60;99.90;;;;;;5033197;28;20402;-62
2021/03/09 08:59:28;;;;;;;28.07;19.00;;;5.80;99.90;;;;;;5032904;28;20406;-63
2021/03/09 09:02:06;;;;;;;22.60;18.20;;;5.90;99.90;;;;;;5033125;28;20421;-63
2021/03/09 09:04:32;;;;;;;24.10;19.83;;;6.20;99.90;;;;;;5014948;28;20456;-63
2021/03/09 09:06:58;;;;;;;23.17;19.30;;;6.30;99.90;;;;;;5032794;28;20414;-61
2021/03/09 09:09:36;;;;;;;22.70;18.60;;;6.60;99.90;;;;;;5033028;28;20199;-62
2021/03/09 09:12:28;;;;;;;25.80;20.13;;;6.80;99.90;;;;;;5034409;28;20632;-62
2021/03/09 09:15:01;;;;;;;23.83;19.60;;;6.70;99.90;;;;;;5040560;28;20420;-62
2021/03/09 09:17:28;;;;;;;21.70;19.17;;;6.60;99.90;;;;;;5053088;28;20912;-61
2021/03/09 09:20:01;;;;;;;25.43;20.17;;;6.70;99.90;;;;;;5037256;28;20492;-62
2021/03/09 09:22:27;;;;;;;21.30;18.77;;;6.90;99.90;;;;;;5033826;28;20409;-62
2021/03/09 09:24:58;;;;;;;22.60;20.20;;;7.00;99.90;;;;;;5033408;28;20457;-62
2021/03/09 09:27:23;;;;;;;26.00;19.70;;;6.70;99.90;;;;;;5036933;28;20405;-62
2021/03/09 09:29:57;;;;;;;26.80;20.37;;;6.70;99.90;;;;;;5036666;28;20441;-63
2021/03/09 09:32:23;;;;;;;27.93;20.80;;;6.90;99.90;;;;;;5037225;28;20473;-62
2021/03/09 09:34:59;;;;;;;25.53;19.40;;;7.00;99.90;;;;;;5037066;28;20846;-62
2021/03/09 09:37:25;;;;;;;23.20;20.53;;;7.10;99.90;;;;;;5036508;28;20410;-62
2021/03/09 09:39:51;;;;;;;24.23;19.20;;;7.00;99.90;;;;;;5036712;28;20467;-62
2021/03/09 09:42:18;;;;;;;23.60;19.60;;;7.40;99.90;;;;;;5036927;28;20424;-62
2021/03/09 09:44:45;;;;;;;22.17;17.93;;;7.30;99.90;;;;;;5042538;28;20506;-61
2021/03/09 09:47:12;;;;;;;29.57;21.10;;;7.20;99.90;;;;;;5036143;28;20445;-62
2021/03/09 09:49:41;;;;;;;25.23;20.90;;;7.40;99.90;;;;;;5036206;28;20449;-62
2021/03/09 09:52:14;;;;;;;23.93;20.63;;;7.50;99.90;;;;;;5034520;28;20408;-64
2021/03/09 09:54:50;;;;;;;23.77;21.27;;;7.70;99.90;;;;;;5016465;28;20479;-61
2021/03/09 09:57:16;;;;;;;25.70;21.30;;;7.90;99.90;;;;;;5016382;28;20391;-62
2021/03/09 09:59:42;;;;;;;23.00;19.30;;;8.10;99.90;;;;;;5020741;28;20414;-65
2021/03/09 10:02:24;;;;;;;22.20;19.20;;;8.40;99.90;;;;;;5020880;28;20192;-62
2021/03/09 10:04:50;;;;;;;24.17;20.33;;;8.20;99.90;;;;;;5032264;28;20229;-63
2021/03/09 10:07:17;;;;;;;23.60;21.03;;;8.40;99.90;;;;;;5034845;28;20426;-63
2021/03/09 10:10:03;;;;;;;21.90;19.60;;;8.20;99.90;;;;;;5035595;28;20447;-63
2021/03/09 10:12:42;;;;;;;23.50;19.43;;;8.30;99.90;;;;;;5036527;28;20386;-60
2021/03/09 10:15:09;;;;;;;25.93;19.90;;;8.30;99.90;;;;;;5044553;28;20435;-63
2021/03/09 10:17:36;;;;;;;29.93;22.30;;;8.50;99.90;;;;;;5043894;28;20468;-63
2021/03/09 10:20:16;;;;;;;31.77;21.00;;;8.40;99.90;;;;;;5035536;28;20975;-62
2021/03/09 10:22:42;;;;;;;23.70;20.23;;;8.60;99.90;;;;;;5035757;28;20434;-63
2021/03/09 10:25:14;;;;;;;22.63;19.00;;;8.70;99.90;;;;;;5035563;28;20467;-63
2021/03/09 10:27:39;;;;;;;23.30;20.30;;;9.00;99.90;;;;;;5025441;28;20187;-64
2021/03/09 10:30:06;;;;;;;24.80;19.50;;;9.00;99.50;;;;;;5033851;28;20545;-64
2021/03/09 10:32:32;;;;;;;25.93;20.63;;;9.00;99.70;;;;;;5032266;28;20172;-62
2021/03/09 10:35:06;;;;;;;26.30;19.17;;;9.00;99.30;;;;;;5035133;28;20451;-62
2021/03/09 10:37:37;;;;;;;21.63;19.20;;;9.00;99.30;;;;;;5017760;28;20245;-61
2021/03/09 10:40:05;;;;;;;28.30;24.83;;;9.00;99.10;;;;;;5015289;28;20447;-63
2021/03/09 10:42:39;;;;;;;21.33;18.97;;;9.30;98.80;;;;;;5014959;28;20952;-62
2021/03/09 10:45:19;;;;;;;20.97;18.73;;;9.50;98.70;;;;;;5015822;28;20467;-61
2021/03/09 10:47:56;;;;;;;22.87;19.07;;;9.60;98.10;;;;;;5019048;28;20455;-63
2021/03/09 10:50:24;;;;;;;21.97;19.67;;;9.70;98.20;;;;;;4997120;28;20975;-63
2021/03/09 10:52:49;;;;;;;21.00;18.30;;;9.70;98.00;;;;;;5014981;28;20849;-63
2021/03/09 10:55:15;;;;;;;23.67;19.70;;;9.70;98.00;;;;;;5014877;28;20457;-63
2021/03/09 10:57:41;;;;;;;20.83;18.27;;;9.50;97.90;;;;;;5015153;28;20182;-62
2021/03/09 11:00:10;;;;;;;19.43;17.43;;;9.80;98.00;;;;;;5014476;28;20183;-63
2021/03/09 11:02:35;;;;;;;21.37;18.13;;;9.90;97.10;;;;;;5014764;28;20417;-63
2021/03/09 11:05:01;;;;;;;23.77;17.70;;;9.50;97.40;;;;;;5014973;28;20430;-63
2021/03/09 11:07:27;;;;;;;21.53;19.23;;;9.80;97.40;;;;;;5021143;28;20521;-63
2021/03/09 11:09:52;;;;;;;20.50;18.30;;;9.90;97.20;;;;;;5032146;28;20666;-63
2021/03/09 11:12:18;;;;;;;20.50;18.30;;;10.30;96.80;;;;;;5028600;28;20179;-61
2021/03/09 11:14:43;;;;;;;21.00;17.93;;;10.20;96.50;;;;;;5025130;28;20193;-63
2021/03/09 11:17:09;;;;;;;20.33;16.03;;;10.50;95.90;;;;;;5054312;28;20174;-63
2021/03/09 11:19:35;;;;;;;19.83;17.80;;;10.20;95.60;;;;;;5054042;28;20177;-62
2021/03/09 11:22:01;;;;;;;20.23;16.73;;;9.90;96.50;;;;;;5054210;28;20167;-64
2021/03/09 11:24:27;;;;;;;19.50;17.40;;;9.90;96.20;;;;;;5033070;28;20430;-63
2021/03/09 11:26:58;;;;;;;22.40;17.00;;;9.70;96.60;;;;;;5032132;28;20422;-63
2021/03/09 11:29:24;;;;;;;19.20;17.20;;;9.30;96.90;;;;;;5033487;28;20459;-61
2021/03/09 11:31:50;;;;;;;22.77;18.90;;;9.30;97.10;;;;;;5024224;28;20418;-63
2021/03/09 11:34:15;;;;;;;20.13;17.97;;;9.50;97.00;;;;;;5023057;28;20785;-64
2021/03/09 11:36:41;;;;;;;20.13;17.80;;;9.20;97.30;;;;;;5023856;28;20220;-63
2021/03/09 11:39:07;;;;;;;20.70;18.00;;;9.60;97.00;;;;;;5034023;28;20720;-59
2021/03/09 11:41:32;;;;;;;18.50;16.37;;;10.00;95.90;;;;;;5026146;28;20180;-63
2021/03/09 11:43:58;;;;;;;17.43;15.53;;;10.20;96.00;;;;;;5032441;28;20196;-63
2021/03/09 11:46:23;;;;;;;17.90;16.10;;;10.40;95.60;;;;;;5015436;28;20201;-62
2021/03/09 11:48:49;;;;;;;17.67;15.77;;;10.60;95.10;;;;;;5033132;28;20285;-62
2021/03/09 11:51:15;;;;;;;18.40;16.50;;;10.70;94.40;;;;;;5033617;28;20160;-63
2021/03/09 11:53:41;;;;;;;17.30;15.10;;;11.00;94.00;;;;;;5033838;28;20164;-61
2021/03/09 11:56:08;;;;;;;14.60;13.00;;;11.70;93.00;;;;;;5027532;28;20431;-63
2021/03/09 11:58:33;;;;;;;14.77;13.13;;;12.00;91.20;;;;;;5032344;28;20493;-63
2021/03/09 12:00:59;;;;;;;16.10;14.50;;;12.40;90.60;;;;;;5021688;28;20254;-63
2021/03/09 12:03:25;;;;;;;14.20;12.70;;;12.70;90.00;;;;;;5018549;28;20186;-62
2021/03/09 12:05:51;;;;;;;13.83;12.33;;;12.40;88.10;;;;;;5021865;28;20252;-61
2021/03/09 12:08:17;;;;;;;14.43;13.02;;;12.50;88.90;;;;;;5022270;28;20428;-63
2021/03/09 12:10:43;;;;;;;15.10;13.50;;;12.40;88.50;;;;;;5032996;28;20457;-63
2021/03/09 12:13:08;;;;;;;15.25;13.75;;;12.00;88.10;;;;;;5026749;28;20498;-62
2021/03/09 12:15:35;;;;;;;15.88;14.18;;;12.30;88.10;;;;;;5034342;28;20427;-62
2021/03/09 12:18:01;;;;;;;15.67;14.10;;;12.30;87.60;;;;;;5032548;28;20185;-63
2021/03/09 12:20:27;;;;;;;14.87;12.67;;;11.30;88.20;;;;;;5020284;28;20422;-62
2021/03/09 12:22:53;;;;;;;13.20;11.90;;;11.10;89.40;;;;;;5013435;28;20412;-62
2021/03/09 12:25:19;;;;;;;14.00;12.50;;;10.70;90.10;;;;;;5014382;28;20959;-59
2021/03/09 12:27:44;;;;;;;13.50;12.10;;;11.00;89.60;;;;;;5022668;28;20260;-63
2021/03/09 12:30:11;;;;;;;13.20;11.80;;;11.10;88.40;;;;;;5032081;28;20440;-64
2021/03/09 12:32:37;;;;;;;16.13;11.80;;;11.50;88.40;;;;;;5028761;28;20652;-62
2021/03/09 12:35:05;;;;;;;12.87;11.07;;;11.80;87.70;;;;;;5032546;28;20465;-62
2021/03/09 12:37:31;;;;;;;12.73;11.43;;;12.00;84.90;;;;;;5034175;28;20410;-62
2021/03/09 12:39:56;;;;;;;19.17;11.30;;;12.90;84.30;;;;;;5038922;28;20781;-63
2021/03/09 12:42:22;;;;;;;12.57;11.27;;;13.70;80.60;;;;;;5038284;28;20939;-62
2021/03/09 12:44:48;;;;;;;11.23;10.10;;;13.70;77.70;;;;;;5042762;28;20203;-63
2021/03/09 12:47:14;;;;;;;11.80;10.60;;;13.80;75.90;;;;;;5028154;28;20422;-63